Time;durP1;ratioP1;P1;durP2;ratioP2;P2;SDS_P1;SDS_P2;PMS_P1;PMS_P2;Temp;Humidity;BMP_temperature;BMP_pressure;BME280_temperature;BME280_humidity;BME280_pressure;Samples;Min_cycle;Max_cycle;Signal;HPM_P1;HPM_P2
2024/02/03 00:00:49;;;;;;;31.13;9.48;;;10.60;99.90;;;10.89;100.00;102526.53;4992892;28;20604;-69
2024/02/03 00:03:18;;;;;;;27.83;9.10;;;10.60;99.90;;;10.97;100.00;102518.75;4993001;28;20046;-68
2024/02/03 00:05:46;;;;;;;24.13;7.72;;;10.70;99.90;;;11.00;100.00;102526.75;4993526;28;20120;-68
2024/02/03 00:08:15;;;;;;;28.58;8.57;;;10.70;99.90;;;11.06;100.00;102532.16;4992923;28;20101;-64
2024/02/03 00:10:43;;;;;;;25.58;8.43;;;10.70;99.90;;;11.07;100.00;102531.28;4992921;28;20038;-66
2024/02/03 00:13:11;;;;;;;22.50;8.05;;;10.80;99.90;;;11.04;100.00;102522.41;4992741;28;20049;-65
2024/02/03 00:15:41;;;;;;;27.08;8.63;;;10.80;99.90;;;11.09;100.00;102534.88;4993134;28;20042;-65
2024/02/03 00:18:10;;;;;;;23.80;8.07;;;10.80;99.90;;;11.15;100.00;102528.81;4993165;28;20495;-65
2024/02/03 00:20:39;;;;;;;29.77;7.50;;;10.80;99.90;;;11.13;100.00;102518.19;4993139;28;20097;-65
2024/02/03 00:23:07;;;;;;;27.20;7.85;;;10.80;99.90;;;11.15;100.00;102521.75;4992676;28;20558;-65
2024/02/03 00:25:36;;;;;;;22.10;8.05;;;10.80;99.90;;;11.14;100.00;102514.69;4992779;28;20630;-65
2024/02/03 00:28:05;;;;;;;30.75;9.02;;;10.80;99.90;;;11.08;100.00;102511.00;4993802;28;20387;-65
2024/02/03 00:30:33;;;;;;;23.30;7.50;;;10.80;99.90;;;11.08;100.00;102505.72;4994198;28;20471;-65
2024/02/03 00:33:03;;;;;;;26.13;7.90;;;10.80;99.90;;;11.15;100.00;102508.50;4994276;28;20050;-65
2024/02/03 00:35:32;;;;;;;22.23;7.85;;;10.90;99.90;;;11.10;100.00;102502.25;4994616;28;20039;-65
2024/02/03 00:38:00;;;;;;;26.30;8.20;;;10.80;99.90;;;11.16;100.00;102501.47;4994428;28;20038;-65
2024/02/03 00:40:29;;;;;;;24.08;7.85;;;10.90;99.90;;;11.22;100.00;102507.78;4994107;28;20034;-65
2024/02/03 00:42:57;;;;;;;26.65;7.95;;;10.90;99.90;;;11.20;100.00;102505.97;4994056;28;20046;-65
2024/02/03 00:45:26;;;;;;;27.92;7.63;;;10.90;99.90;;;11.28;100.00;102499.06;4993992;28;20117;-65
2024/02/03 00:47:54;;;;;;;27.52;8.13;;;11.00;99.90;;;11.28;100.00;102513.19;4994039;28;20038;-65
2024/02/03 00:50:24;;;;;;;26.00;7.72;;;11.00;99.90;;;11.38;100.00;102506.31;4993791;28;20048;-65
2024/02/03 00:52:53;;;;;;;27.95;8.00;;;11.10;99.90;;;11.43;100.00;102499.34;4994283;28;20049;-65
2024/02/03 00:55:21;;;;;;;22.20;8.02;;;11.10;99.90;;;11.38;100.00;102501.03;4993272;28;20050;-65
2024/02/03 00:57:50;;;;;;;24.05;7.40;;;11.10;99.90;;;11.46;100.00;102507.31;4993815;28;20042;-65
2024/02/03 01:00:22;;;;;;;19.90;7.50;;;11.20;99.90;;;11.49;100.00;102505.66;4994062;28;20514;-65
2024/02/03 01:02:51;;;;;;;24.98;7.90;;;11.20;99.90;;;11.33;100.00;102474.44;4993699;28;20125;-65
2024/02/03 01:05:20;;;;;;;22.75;7.80;;;11.20;99.90;;;11.46;100.00;102507.31;4993703;28;20046;-65
2024/02/03 01:07:50;;;;;;;23.65;7.18;;;11.20;99.90;;;11.51;100.00;102503.03;4993591;28;20411;-65
2024/02/03 01:10:20;;;;;;;21.35;7.25;;;11.20;99.90;;;11.56;100.00;102498.69;4993887;28;20046;-65
2024/02/03 01:12:48;;;;;;;18.13;6.63;;;11.30;99.90;;;11.49;100.00;102491.50;4992853;28;20077;-65
2024/02/03 01:15:17;;;;;;;20.40;6.32;;;11.30;99.90;;;11.59;100.00;102493.44;4994345;28;20125;-64
2024/02/03 01:17:46;;;;;;;16.77;6.13;;;11.30;99.90;;;11.58;100.00;102495.19;4993491;28;20377;-65
2024/02/03 01:20:14;;;;;;;27.90;7.70;;;11.30;99.90;;;11.62;100.00;102499.69;4993695;28;20059;-64
2024/02/03 01:22:43;;;;;;;22.15;7.03;;;11.40;99.90;;;11.61;100.00;102484.63;4993765;28;20046;-65
2024/02/03 01:25:13;;;;;;;16.92;6.40;;;11.40;99.90;;;11.64;100.00;102476.75;4993964;28;20045;-65
2024/02/03 01:27:41;;;;;;;20.67;6.88;;;11.40;99.90;;;11.57;100.00;102485.47;4993452;28;20388;-65
2024/02/03 01:30:11;;;;;;;23.73;7.03;;;11.30;99.90;;;11.63;100.00;102482.91;4993231;28;20042;-65
2024/02/03 01:32:40;;;;;;;19.25;7.30;;;11.40;99.90;;;10.89;100.00;102351.81;4993781;28;20050;-65
2024/02/03 01:35:09;;;;;;;25.80;6.70;;;11.40;99.90;;;11.63;100.00;102484.69;4993547;28;20448;-64
2024/02/03 01:37:38;;;;;;;20.10;6.25;;;11.30;99.90;;;11.65;100.00;102480.31;4993481;28;20098;-65
2024/02/03 01:40:08;;;;;;;18.25;6.18;;;11.40;99.90;;;11.70;100.00;102482.19;4993547;28;20054;-65
2024/02/03 01:42:38;;;;;;;15.93;6.32;;;11.40;99.90;;;11.75;100.00;102477.84;4993602;28;20047;-65
2024/02/03 01:45:07;;;;;;;22.17;6.70;;;11.50;99.90;;;11.70;100.00;102478.66;4993510;28;20388;-64
2024/02/03 01:47:36;;;;;;;23.35;6.78;;;11.50;99.90;;;11.67;100.00;102474.19;4993262;28;20048;-64
2024/02/03 01:50:07;;;;;;;19.98;5.93;;;11.40;99.90;;;11.72;100.00;102475.16;4993452;28;20042;-64
2024/02/03 01:52:36;;;;;;;25.15;6.95;;;11.40;99.90;;;11.66;100.00;102475.06;4993125;28;20034;-65
2024/02/03 01:55:06;;;;;;;20.63;7.00;;;11.50;99.90;;;11.66;100.00;102477.72;4993483;28;20034;-65
2024/02/03 01:57:37;;;;;;;23.25;6.40;;;11.40;99.90;;;11.67;100.00;102458.28;4993185;28;20049;-64
2024/02/03 02:00:07;;;;;;;17.83;6.38;;;11.40;99.90;;;11.73;100.00;102478.69;4993370;28;20038;-65
2024/02/03 02:02:36;;;;;;;18.90;6.22;;;11.40;99.90;;;11.67;100.00;102468.88;4993095;28;20069;-64
2024/02/03 02:05:05;;;;;;;22.80;6.55;;;11.40;99.90;;;11.71;100.00;102475.16;4993058;28;20471;-64
2024/02/03 02:07:37;;;;;;;22.02;6.55;;;11.40;99.90;;;11.74;100.00;102473.44;4996601;28;20053;-64
2024/02/03 02:10:06;;;;;;;28.33;7.03;;;11.50;99.90;;;11.75;100.00;102472.56;4996938;28;20112;-65
2024/02/03 02:12:35;;;;;;;26.80;6.82;;;11.50;99.90;;;11.75;100.00;102471.66;4996701;28;20479;-64
2024/02/03 02:15:06;;;;;;;21.52;6.85;;;11.50;99.90;;;11.81;100.00;102470.88;4996818;28;20042;-64
2024/02/03 02:17:36;;;;;;;21.58;6.75;;;11.50;99.90;;;11.61;100.00;102446.66;4997208;28;20125;-64
2024/02/03 02:20:07;;;;;;;19.83;6.60;;;11.50;99.90;;;11.77;100.00;102476.13;4995294;28;20152;-64
2024/02/03 02:22:36;;;;;;;18.08;6.22;;;11.50;99.90;;;11.62;100.00;102451.09;4997073;28;20301;-64
2024/02/03 02:25:06;;;;;;;19.40;6.28;;;11.50;99.90;;;11.71;100.00;102478.66;4996792;28;20563;-64
2024/02/03 02:27:35;;;;;;;20.67;6.28;;;11.50;99.90;;;11.76;100.00;102479.66;4996746;28;20043;-64
2024/02/03 02:30:04;;;;;;;22.25;7.05;;;11.50;99.90;;;11.78;100.00;102474.38;4996654;28;20038;-65
2024/02/03 02:32:33;;;;;;;27.42;6.72;;;11.50;99.90;;;11.64;100.00;102478.50;4994173;28;20038;-64
2024/02/03 02:35:02;;;;;;;23.48;6.38;;;11.50;99.90;;;11.85;100.00;102462.97;4994893;28;20114;-64
2024/02/03 02:37:32;;;;;;;24.20;6.18;;;11.60;99.90;;;11.83;100.00;102479.75;4994429;28;20049;-64
2024/02/03 02:40:00;;;;;;;24.77;7.10;;;11.60;99.90;;;11.85;100.00;102468.28;4995691;28;20043;-65
2024/02/03 02:42:29;;;;;;;23.63;6.82;;;11.60;99.90;;;11.81;100.00;102465.59;4995393;28;20053;-64
2024/02/03 02:44:57;;;;;;;23.90;6.78;;;11.60;99.90;;;11.83;100.00;102463.84;4994119;28;20034;-64
2024/02/03 02:47:26;;;;;;;20.55;6.70;;;11.60;99.90;;;11.92;100.00;102462.22;4994301;28;20069;-64
2024/02/03 02:49:54;;;;;;;19.90;6.07;;;11.60;99.90;;;11.98;100.00;102475.56;4993796;28;20042;-64
2024/02/03 02:52:23;;;;;;;25.92;6.75;;;11.70;99.90;;;11.99;100.00;102476.47;4994295;28;20031;-64
2024/02/03 02:54:55;;;;;;;19.60;6.05;;;11.70;99.90;;;12.00;100.00;102465.00;4994242;28;20410;-65
2024/02/03 02:57:24;;;;;;;22.52;6.18;;;11.70;99.90;;;12.01;100.00;102467.66;4993242;28;20070;-64
2024/02/03 02:59:52;;;;;;;25.52;6.10;;;11.70;99.90;;;12.00;100.00;102470.31;4994073;28;20050;-64
2024/02/03 03:02:21;;;;;;;19.63;6.45;;;11.70;99.90;;;12.02;100.00;102466.78;4994023;28;20042;-65
2024/02/03 03:04:49;;;;;;;22.65;6.20;;;11.70;99.90;;;11.97;100.00;102456.97;4994452;28;20034;-64
2024/02/03 03:07:19;;;;;;;16.88;6.20;;;11.70;99.90;;;11.95;100.00;102450.75;4994060;28;20451;-64
2024/02/03 03:09:47;;;;;;;21.02;6.97;;;11.60;99.90;;;12.00;100.00;102446.44;4993147;28;20039;-64
2024/02/03 03:12:17;;;;;;;24.88;7.07;;;11.70;99.90;;;12.01;100.00;102454.41;4992824;28;20097;-65
2024/02/03 03:14:45;;;;;;;25.00;6.53;;;11.70;99.90;;;11.92;100.00;102454.28;4993974;28;20049;-65
2024/02/03 03:17:14;;;;;;;20.48;6.35;;;11.70;99.90;;;12.00;100.00;102449.97;4993141;28;20046;-65
2024/02/03 03:19:42;;;;;;;25.17;6.90;;;11.70;99.90;;;11.99;100.00;102445.53;4993694;28;20050;-64
2024/02/03 03:22:12;;;;;;;21.30;6.45;;;11.70;99.90;;;12.04;100.00;102458.88;4993671;28;20035;-65
2024/02/03 03:24:42;;;;;;;17.15;6.05;;;11.80;99.90;;;11.91;100.00;102447.19;4993622;28;20042;-65
2024/02/03 03:27:10;;;;;;;26.30;6.93;;;11.70;99.90;;;11.85;100.00;102448.81;4994305;28;20057;-64
2024/02/03 03:29:40;;;;;;;21.25;6.07;;;11.70;99.90;;;11.97;100.00;102447.28;4993995;28;20101;-65
2024/02/03 03:32:08;;;;;;;30.50;7.80;;;11.70;99.90;;;11.93;100.00;102441.88;4992507;28;20070;-65
2024/02/03 03:34:37;;;;;;;22.73;6.03;;;11.70;99.90;;;11.99;100.00;102440.22;4993473;28;20042;-65
2024/02/03 03:37:05;;;;;;;30.33;7.80;;;11.70;99.90;;;12.04;100.00;102441.19;4992313;28;20062;-65
2024/02/03 03:39:34;;;;;;;25.75;6.43;;;11.70;99.90;;;11.98;100.00;102440.22;4992216;28;20506;-65
2024/02/03 03:42:03;;;;;;;22.63;6.50;;;11.70;99.90;;;12.00;100.00;102443.78;4993560;28;20041;-65
2024/02/03 03:44:32;;;;;;;21.10;6.97;;;11.70;99.90;;;12.00;100.00;102446.44;4993470;28;20050;-65
2024/02/03 03:47:02;;;;;;;24.42;6.95;;;11.70;99.90;;;11.95;100.00;102454.31;4993510;28;20054;-65
2024/02/03 03:49:32;;;;;;;21.90;5.72;;;11.70;99.90;;;11.94;100.00;102441.03;4992539;28;20823;-64
2024/02/03 03:52:01;;;;;;;20.42;6.25;;;11.70;99.90;;;12.07;100.00;102469.53;4993392;28;20038;-64
2024/02/03 03:54:30;;;;;;;21.83;6.13;;;11.70;99.90;;;12.04;100.00;102448.28;4993523;28;20034;-65
2024/02/03 03:56:58;;;;;;;22.67;6.90;;;11.80;99.90;;;12.09;100.00;102450.13;4992037;28;20442;-64
2024/02/03 03:59:27;;;;;;;23.33;6.20;;;11.80;99.90;;;12.04;100.00;102446.47;4993699;28;20048;-64
2024/02/03 04:01:55;;;;;;;24.48;6.78;;;11.80;99.90;;;12.16;100.00;102443.13;4993081;28;20096;-64
2024/02/03 04:04:25;;;;;;;20.60;6.50;;;11.80;99.90;;;12.19;100.00;102435.22;4992047;28;20034;-65
2024/02/03 04:06:54;;;;;;;27.47;7.50;;;11.90;99.90;;;12.19;100.00;102453.78;4992790;28;20376;-65
2024/02/03 04:09:22;;;;;;;27.08;6.75;;;11.90;99.90;;;12.16;100.00;102444.03;4993055;28;20290;-64
2024/02/03 04:11:51;;;;;;;21.95;6.18;;;11.90;99.90;;;12.17;100.00;102444.91;4993295;28;20129;-65
2024/02/03 04:14:19;;;;;;;23.63;6.18;;;11.90;99.90;;;12.04;100.00;102419.09;4992728;28;20052;-64
2024/02/03 04:16:48;;;;;;;25.83;6.78;;;11.90;99.90;;;12.15;100.00;102438.69;4992971;28;20049;-64
2024/02/03 04:19:16;;;;;;;24.77;5.60;;;11.90;99.90;;;12.19;100.00;102445.84;4992512;28;20065;-64
2024/02/03 04:21:46;;;;;;;22.52;6.50;;;11.90;99.90;;;12.20;100.00;102437.88;4992709;28;20141;-65
2024/02/03 04:24:15;;;;;;;19.83;5.68;;;11.90;99.90;;;12.21;100.00;102439.69;4992884;28;20471;-65
2024/02/03 04:26:43;;;;;;;22.40;6.30;;;11.90;99.90;;;12.09;100.00;102434.19;4992405;28;20476;-64
2024/02/03 04:29:11;;;;;;;24.75;6.55;;;11.80;99.90;;;12.02;100.00;102423.47;4992336;28;20053;-64
2024/02/03 04:31:42;;;;;;;27.33;6.68;;;11.80;99.90;;;12.08;100.00;102431.53;4991183;28;20533;-65
2024/02/03 04:34:10;;;;;;;;;;;11.80;99.90;;;12.07;100.00;102432.38;4993103;28;20047;-65
2024/02/03 04:36:39;;;;;;;21.13;6.30;;;11.80;99.90;;;12.15;100.00;102423.69;4991651;28;19925;-64
2024/02/03 04:39:09;;;;;;;19.42;6.22;;;11.90;99.90;;;12.16;100.00;102432.50;4992227;28;20030;-64
2024/02/03 04:41:37;;;;;;;20.50;6.05;;;11.80;99.90;;;12.16;100.00;102429.84;4992462;28;20050;-64
2024/02/03 04:44:06;;;;;;;28.45;6.60;;;11.80;99.90;;;12.04;100.00;102433.22;5465536;23;20059;-65
2024/02/03 04:46:34;;;;;;;18.05;5.82;;;11.80;99.90;;;12.07;100.00;102445.66;4972548;28;20554;-64
2024/02/03 04:49:03;;;;;;;24.55;6.75;;;11.80;99.90;;;12.06;100.00;102444.75;4972521;28;20090;-66
2024/02/03 04:51:32;;;;;;;23.88;6.68;;;11.80;99.90;;;12.09;100.00;102442.16;4972979;28;20053;-64
2024/02/03 04:54:00;;;;;;;22.02;5.97;;;11.80;99.90;;;11.98;100.00;102427.81;4972713;28;20117;-64
2024/02/03 04:56:30;;;;;;;17.65;5.78;;;11.80;99.90;;;11.99;100.00;102423.41;4973019;28;20046;-65
2024/02/03 04:58:58;;;;;;;22.93;6.67;;;11.80;99.90;;;12.05;100.00;102427.06;4972545;28;20077;-65
2024/02/03 05:01:27;;;;;;;24.25;6.25;;;11.80;99.90;;;12.06;100.00;102435.91;4972366;28;20078;-66
2024/02/03 05:03:55;;;;;;;22.45;6.47;;;11.70;99.90;;;12.07;100.00;102427.97;4971358;28;20051;-63
2024/02/03 05:06:24;;;;;;;26.20;6.72;;;11.70;99.90;;;12.07;100.00;102432.38;4971298;28;20046;-64
2024/02/03 05:08:54;;;;;;;21.25;6.50;;;11.80;99.90;;;12.05;100.00;102432.38;4972242;28;20133;-64
2024/02/03 05:11:22;;;;;;;19.95;5.97;;;11.80;99.90;;;12.13;100.00;102437.78;4972519;28;20621;-64
2024/02/03 05:13:52;;;;;;;19.50;5.72;;;11.80;99.90;;;12.21;100.00;102446.75;4972325;28;20031;-65
2024/02/03 05:16:20;;;;;;;18.80;6.17;;;11.90;99.90;;;12.22;100.00;102443.22;4972477;28;20043;-63
2024/02/03 05:18:49;;;;;;;22.27;6.38;;;11.90;99.90;;;12.28;100.00;102443.31;4972233;28;20147;-64
2024/02/03 05:21:17;;;;;;;20.23;6.57;;;12.00;99.90;;;12.21;100.00;102439.69;4972118;28;20039;-62
2024/02/03 05:23:46;;;;;;;24.85;6.85;;;12.00;99.90;;;12.17;100.00;102439.63;4972051;28;20038;-63
2024/02/03 05:26:14;;;;;;;26.23;6.97;;;11.90;99.90;;;12.12;100.00;102436.88;4971997;28;20050;-63
2024/02/03 05:28:42;;;;;;;21.52;6.10;;;11.90;99.90;;;12.07;100.00;102432.38;4970937;28;20062;-65
2024/02/03 05:31:20;;;;;;;22.13;6.68;;;11.80;99.90;;;12.04;100.00;102432.34;4971994;28;20049;-62
2024/02/03 05:33:48;;;;;;;22.05;6.18;;;11.80;99.90;;;12.07;100.00;102432.38;4972182;28;20047;-63
2024/02/03 05:36:17;;;;;;;28.13;6.47;;;11.80;99.90;;;11.98;100.00;102426.97;4971899;28;20122;-63
2024/02/03 05:38:45;;;;;;;24.38;7.03;;;11.80;99.90;;;12.00;100.00;102427.88;4971770;28;20047;-65
2024/02/03 05:41:14;;;;;;;25.45;7.32;;;11.70;99.90;;;11.91;100.00;102417.09;4975097;28;20046;-63
2024/02/03 05:43:42;;;;;;;23.67;6.22;;;11.70;99.90;;;11.97;100.00;102415.44;4978421;28;20050;-63
2024/02/03 05:46:12;;;;;;;21.05;6.00;;;11.70;99.90;;;11.97;100.00;102426.06;4978527;28;20046;-64
2024/02/03 05:48:40;;;;;;;27.98;7.25;;;11.70;99.90;;;11.91;100.00;102417.09;4978558;28;20484;-64
2024/02/03 05:51:09;;;;;;;23.33;7.03;;;11.70;99.90;;;11.89;100.00;102422.41;4978255;28;20515;-63
2024/02/03 05:53:37;;;;;;;27.88;7.13;;;11.60;99.90;;;11.89;100.00;102416.19;4978395;28;20109;-63
2024/02/03 05:56:07;;;;;;;23.70;6.55;;;11.60;99.90;;;11.82;100.00;102416.97;4978207;28;20053;-64
2024/02/03 05:58:35;;;;;;;20.88;6.63;;;11.60;99.90;;;11.83;100.00;102418.78;4978433;28;20086;-63
2024/02/03 06:01:04;;;;;;;22.02;6.90;;;11.50;99.90;;;11.91;100.00;102422.41;4978733;28;20054;-64
2024/02/03 06:03:34;;;;;;;21.10;6.10;;;11.60;99.90;;;11.88;100.00;102425.03;4978350;28;20046;-63
2024/02/03 06:06:03;;;;;;;25.15;7.22;;;11.60;99.90;;;11.91;100.00;102415.34;4978639;28;20600;-64
2024/02/03 06:08:51;;;;;;;24.40;6.40;;;11.60;99.90;;;11.98;100.00;102438.44;4978101;28;20125;-65
2024/02/03 06:11:19;;;;;;;20.58;6.88;;;11.70;99.90;;;12.03;100.00;102436.75;4978660;28;20061;-63
2024/02/03 06:13:48;;;;;;;25.10;7.07;;;11.70;99.90;;;11.96;100.00;102428.69;4978254;28;20558;-64
2024/02/03 06:16:16;;;;;;;25.67;6.43;;;11.70;99.90;;;11.88;100.00;102419.72;4978341;28;20043;-64
2024/02/03 06:18:46;;;;;;;22.85;6.32;;;11.70;99.90;;;11.95;100.00;102421.59;4977966;28;20053;-64
2024/02/03 06:21:14;;;;;;;31.10;8.25;;;11.70;99.90;;;11.83;100.00;102422.28;4993149;28;20403;-64
2024/02/03 06:23:43;;;;;;;29.73;6.55;;;11.60;99.90;;;11.82;100.00;102409.94;4977923;28;20501;-65
2024/02/03 06:26:12;;;;;;;32.35;7.32;;;11.60;99.90;;;11.89;100.00;102418.84;4976982;28;20047;-66
2024/02/03 06:28:40;;;;;;;25.48;7.13;;;11.60;99.90;;;11.85;100.00;102417.91;4977913;28;20393;-65
2024/02/03 06:31:09;;;;;;;30.35;7.47;;;11.60;99.90;;;11.84;100.00;102423.19;4978388;28;20039;-65
2024/02/03 06:33:37;;;;;;;22.67;7.22;;;11.60;99.90;;;11.83;100.00;102419.66;4977798;28;20046;-65
2024/02/03 06:36:08;;;;;;;28.00;7.13;;;11.50;99.90;;;11.71;100.00;102411.53;5474782;23;20062;-69
2024/02/03 06:38:36;;;;;;;;;;;11.60;99.90;;;11.71;100.00;102404.44;4997135;28;20113;-69
2024/02/03 06:41:05;;;;;;;33.88;7.68;;;11.60;99.90;;;11.75;100.00;102408.03;4996779;28;20360;-68
2024/02/03 06:43:33;;;;;;;27.30;7.10;;;11.50;99.90;;;11.67;100.00;102407.91;4996616;28;20038;-68
2024/02/03 06:46:02;;;;;;;29.88;7.10;;;11.40;99.90;;;11.71;100.00;102412.41;4995570;28;20393;-69
2024/02/03 06:48:30;;;;;;;24.90;7.45;;;11.40;99.90;;;11.72;100.00;102410.66;4995527;28;20596;-68
2024/02/03 06:50:59;;;;;;;28.38;7.85;;;11.50;99.90;;;11.33;100.00;102339.31;4996528;28;20046;-68
2024/02/03 06:53:28;;;;;;;25.75;7.45;;;11.50;99.90;;;11.52;100.00;102367.00;4992797;28;20042;-68
2024/02/03 06:55:57;;;;;;;26.75;6.97;;;11.50;99.90;;;11.79;100.00;102421.38;4993792;28;20081;-68
2024/02/03 06:58:27;;;;;;;28.35;7.00;;;11.50;99.90;;;11.21;100.00;102328.53;4993505;28;20042;-69
2024/02/03 07:00:55;;;;;;;30.65;7.05;;;11.50;99.90;;;11.86;100.00;102432.06;4993344;28;20050;-68
2024/02/03 07:03:24;;;;;;;34.83;7.38;;;11.60;99.90;;;11.87;100.00;102431.19;4993356;28;20121;-68
2024/02/03 07:05:52;;;;;;;27.15;6.90;;;11.60;99.90;;;11.88;100.00;102432.97;4993293;28;20050;-69
2024/02/03 07:08:21;;;;;;;23.52;7.15;;;11.60;99.90;;;11.93;100.00;102437.50;4993167;28;20046;-69
2024/02/03 07:10:50;;;;;;;27.13;6.97;;;11.60;99.90;;;11.92;100.00;102442.78;4993400;28;20097;-67
2024/02/03 07:13:21;;;;;;;25.73;6.83;;;11.60;99.90;;;11.91;100.00;102438.31;4993082;28;20125;-67
2024/02/03 07:15:49;;;;;;;26.83;6.60;;;11.60;99.90;;;11.92;100.00;102448.97;4993105;28;20455;-67
2024/02/03 07:18:18;;;;;;;26.60;6.97;;;11.70;99.90;;;11.89;100.00;102432.09;4993237;28;20049;-67
2024/02/03 07:20:47;;;;;;;31.25;6.40;;;11.70;99.90;;;11.86;100.00;102437.38;4993080;28;20053;-67
2024/02/03 07:23:15;;;;;;;29.00;7.15;;;11.60;99.90;;;11.97;100.00;102443.72;4991774;28;20050;-67
2024/02/03 07:25:44;;;;;;;20.90;6.70;;;11.70;99.90;;;11.91;100.00;102443.63;4992811;28;20046;-68
2024/02/03 07:28:14;;;;;;;24.30;7.35;;;11.70;99.90;;;11.97;100.00;102449.03;4993143;28;20080;-67
2024/02/03 07:30:42;;;;;;;25.67;6.50;;;11.70;99.90;;;11.97;100.00;102460.53;4992974;28;20046;-64
2024/02/03 07:33:12;;;;;;;20.10;5.90;;;11.70;99.90;;;12.06;100.00;102454.50;4992963;28;20125;-65
2024/02/03 07:35:41;;;;;;;31.05;6.78;;;11.80;99.90;;;11.95;100.00;102458.72;4992658;28;20053;-70
2024/02/03 07:38:09;;;;;;;22.73;6.22;;;11.70;99.90;;;12.02;100.00;102461.47;4992752;28;20042;-70
2024/02/03 07:40:38;;;;;;;27.38;7.07;;;11.70;99.90;;;12.08;100.00;102463.38;5007902;28;20403;-69
2024/02/03 07:43:06;;;;;;;21.00;6.18;;;11.80;99.90;;;12.02;100.00;102450.88;4993341;28;20046;-69
2024/02/03 07:45:36;;;;;;;25.15;6.93;;;11.80;99.90;;;12.06;100.00;102463.31;4992879;28;20421;-68
2024/02/03 07:48:05;;;;;;;25.85;6.38;;;11.80;99.90;;;12.04;100.00;102465.06;4993268;28;20120;-68
2024/02/03 07:50:34;;;;;;;22.65;7.15;;;11.80;99.90;;;12.05;100.00;102458.00;4992366;28;20054;-67
2024/02/03 07:53:03;;;;;;;24.73;6.95;;;11.80;99.90;;;11.96;100.00;102461.41;4991228;28;20507;-68
2024/02/03 07:55:31;;;;;;;25.45;6.60;;;11.70;99.90;;;12.00;100.00;102468.53;4991333;28;20066;-69
2024/02/03 07:57:59;;;;;;;26.25;6.32;;;11.70;99.90;;;11.99;100.00;102461.44;4992077;28;20117;-69
2024/02/03 08:00:28;;;;;;;24.65;5.78;;;11.70;99.90;;;12.00;100.00;102462.34;4992056;28;20073;-70
2024/02/03 08:02:58;;;;;;;23.45;6.68;;;11.70;99.90;;;12.11;100.00;102466.03;4992719;28;20104;-70
2024/02/03 08:05:26;;;;;;;26.83;7.07;;;11.80;99.90;;;12.15;100.00;102473.19;4991383;28;20113;-70
2024/02/03 08:07:55;;;;;;;27.17;6.95;;;11.90;99.90;;;12.04;100.00;102469.50;4993957;28;20045;-71
2024/02/03 08:10:23;;;;;;;26.90;7.15;;;11.80;99.90;;;12.02;100.00;102480.03;4994128;28;20560;-68
2024/02/03 08:12:52;;;;;;;21.52;6.30;;;11.80;99.90;;;12.04;100.00;102483.63;4994337;28;20046;-69
2024/02/03 08:15:20;;;;;;;25.42;7.45;;;11.80;99.90;;;12.13;100.00;102490.84;4993810;28;20050;-69
2024/02/03 08:17:48;;;;;;;25.05;7.20;;;11.80;99.90;;;12.04;100.00;102488.06;4993831;28;20046;-68
2024/02/03 08:20:18;;;;;;;24.17;7.03;;;11.80;99.90;;;12.08;100.00;102489.88;4993754;28;20125;-68
2024/02/03 08:22:47;;;;;;;18.23;6.03;;;11.80;99.90;;;12.11;100.00;102489.91;4993610;28;20053;-68
2024/02/03 08:25:15;;;;;;;23.23;6.07;;;11.80;99.90;;;12.04;100.00;102483.63;4992551;28;20062;-68
2024/02/03 08:27:44;;;;;;;20.00;5.88;;;11.80;99.90;;;12.04;100.00;102488.06;4993626;28;20184;-68
2024/02/03 08:30:13;;;;;;;23.33;6.78;;;11.70;99.90;;;12.08;100.00;102474.84;5008954;28;20050;-68
2024/02/03 08:32:42;;;;;;;24.65;6.35;;;11.80;99.90;;;12.01;100.00;102470.31;4993739;28;20073;-68
2024/02/03 08:35:10;;;;;;;23.23;6.22;;;11.70;99.90;;;12.10;100.00;102464.28;4993527;28;20074;-68
2024/02/03 08:37:43;;;;;;;27.38;6.15;;;11.80;99.90;;;12.00;100.00;102457.91;5008720;28;20125;-69
2024/02/03 08:40:12;;;;;;;25.07;6.77;;;11.80;99.90;;;11.90;100.00;102444.50;4992353;28;20054;-69
2024/02/03 08:42:41;;;;;;;23.73;6.07;;;11.70;99.90;;;11.94;100.00;102456.94;4993638;28;20057;-69
2024/02/03 08:45:10;;;;;;;21.52;6.07;;;11.70;99.90;;;11.94;100.00;102447.25;4993594;28;20049;-68
2024/02/03 08:47:39;;;;;;;25.70;6.43;;;11.70;99.90;;;11.90;100.00;102476.31;4993203;28;20058;-68
2024/02/03 08:50:08;;;;;;;17.67;6.00;;;11.70;99.90;;;11.98;100.00;102458.78;4993331;28;20045;-68
2024/02/03 08:52:37;;;;;;;28.35;6.70;;;11.70;99.90;;;12.06;100.00;102449.19;4993510;28;20066;-69
2024/02/03 08:55:08;;;;;;;25.92;6.50;;;11.70;99.90;;;12.02;100.00;102461.47;4993390;28;20084;-68
2024/02/03 08:57:36;;;;;;;26.15;6.20;;;11.70;99.90;;;12.12;100.00;102457.19;4993241;28;20042;-68
2024/02/03 09:00:06;;;;;;;23.98;6.18;;;11.80;99.90;;;12.01;100.00;102458.81;4993162;28;20392;-68
2024/02/03 09:02:35;;;;;;;26.00;5.97;;;11.70;99.90;;;12.12;100.00;102462.50;4993158;28;20093;-68
2024/02/03 09:05:04;;;;;;;20.23;6.15;;;11.80;99.90;;;12.09;100.00;102454.53;4993331;28;20038;-68
2024/02/03 09:07:34;;;;;;;20.35;6.18;;;11.80;99.90;;;12.11;100.00;102476.66;4993299;28;20049;-68
2024/02/03 09:10:03;;;;;;;21.73;6.15;;;11.80;99.90;;;12.07;100.00;102448.31;4993158;28;20046;-68
2024/02/03 09:12:33;;;;;;;24.15;6.30;;;11.80;99.90;;;12.00;100.00;102446.44;4993835;28;20050;-68
2024/02/03 09:15:01;;;;;;;21.20;5.93;;;11.70;99.90;;;11.77;100.00;102412.50;4991644;28;20148;-68
2024/02/03 09:17:29;;;;;;;19.77;6.28;;;11.70;99.90;;;12.01;100.00;102450.84;4991711;28;20293;-68
2024/02/03 09:19:58;;;;;;;19.70;6.03;;;11.70;99.90;;;12.03;100.00;102446.47;4992810;28;20077;-68
2024/02/03 09:22:26;;;;;;;20.58;5.60;;;11.80;99.90;;;12.11;100.00;102448.38;4992605;28;20412;-68
2024/02/03 09:24:55;;;;;;;18.45;5.60;;;11.80;99.90;;;12.09;100.00;102449.22;4991963;28;20120;-68
2024/02/03 09:27:23;;;;;;;19.15;5.55;;;11.80;99.90;;;11.94;100.00;102417.16;4991701;28;20046;-68
2024/02/03 09:29:53;;;;;;;16.00;4.75;;;11.80;99.90;;;12.12;100.00;102446.59;4992753;28;20473;-68
2024/02/03 09:32:23;;;;;;;13.05;4.70;;;11.80;99.90;;;12.21;100.00;102452.97;4992946;28;20066;-69
2024/02/03 09:34:52;;;;;;;16.15;5.13;;;11.90;99.90;;;12.23;100.00;102452.97;4992721;28;20046;-69
2024/02/03 09:37:20;;;;;;;20.02;5.93;;;11.90;99.90;;;12.27;100.00;102465.41;5007999;28;20089;-68
2024/02/03 09:39:51;;;;;;;14.63;5.00;;;12.00;99.90;;;12.23;100.00;102456.50;4992554;28;20047;-69
2024/02/03 09:42:20;;;;;;;14.55;4.93;;;12.00;99.90;;;12.27;100.00;102462.75;4991449;28;20042;-69
2024/02/03 09:44:49;;;;;;;25.83;5.88;;;12.00;99.90;;;12.25;100.00;102464.50;4992323;28;20046;-69
2024/02/03 09:47:19;;;;;;;22.42;6.55;;;12.00;99.90;;;12.31;100.00;102475.19;4993078;28;20042;-69
2024/02/03 09:49:48;;;;;;;19.83;6.05;;;12.10;99.90;;;12.31;100.00;102470.75;5007724;28;20046;-69
2024/02/03 09:52:19;;;;;;;14.52;4.60;;;12.00;99.90;;;12.36;100.00;102477.03;4992399;28;20121;-68
2024/02/03 09:54:48;;;;;;;13.90;5.05;;;12.10;99.90;;;12.37;100.00;102477.91;4992388;28;20403;-68
2024/02/03 09:57:17;;;;;;;17.67;5.30;;;12.10;99.90;;;12.44;100.00;102485.09;4992742;28;20130;-68
2024/02/03 09:59:51;;;;;;;11.73;5.35;;;12.10;99.90;;;12.48;100.00;102473.66;4991089;28;20046;-68
2024/02/03 10:02:21;;;;;;;16.08;5.72;;;12.20;99.90;;;12.50;100.00;102485.19;4992709;28;20050;-69
2024/02/03 10:04:50;;;;;;;16.63;5.93;;;12.20;99.90;;;12.52;100.00;102491.41;4992692;28;20050;-68
2024/02/03 10:07:19;;;;;;;14.02;5.32;;;12.20;99.90;;;12.52;100.00;102486.13;4992077;28;20046;-68